createdAt,value
2017-06-01T00:01:36.940Z,1.78
2017-06-01T00:04:05.878Z,2.24
2017-06-01T00:06:34.964Z,1.80
2017-06-01T00:09:03.893Z,2.10
2017-06-01T00:11:32.829Z,1.98
2017-06-01T00:14:01.792Z,2.16
2017-06-01T00:16:30.728Z,2.28
2017-06-01T00:18:59.824Z,2.10
2017-06-01T00:21:28.833Z,1.94
2017-06-01T00:23:57.812Z,2.34
2017-06-01T00:26:26.816Z,1.84
2017-06-01T00:28:55.800Z,1.86
2017-06-01T00:31:24.800Z,2.10
2017-06-01T00:33:53.785Z,2.38
2017-06-01T00:36:22.716Z,2.12
2017-06-01T00:38:51.673Z,2.16
2017-06-01T00:41:20.645Z,3.36
2017-06-01T00:43:50.576Z,2.32
2017-06-01T00:46:19.541Z,2.10
2017-06-01T00:48:48.465Z,3.42
2017-06-01T00:51:17.460Z,2.56
2017-06-01T00:53:46.448Z,2.16
2017-06-01T00:56:15.429Z,2.48
2017-06-01T00:58:44.365Z,2.72
2017-06-01T01:01:13.323Z,3.46
2017-06-01T01:03:42.320Z,2.30
2017-06-01T01:06:11.304Z,3.92
2017-06-01T01:08:40.391Z,3.24
2017-06-01T01:11:09.352Z,3.28
2017-06-01T01:13:38.277Z,2.48
2017-06-01T01:16:07.265Z,3.26
2017-06-01T01:18:36.192Z,2.68
2017-06-01T01:21:05.119Z,2.96
2017-06-01T01:23:34.100Z,2.74
2017-06-01T01:26:03.037Z,2.90
2017-06-01T01:28:31.969Z,2.14
2017-06-01T01:31:00.936Z,2.48
2017-06-01T01:33:29.861Z,2.34
2017-06-01T01:35:58.840Z,3.44
2017-06-01T01:38:27.808Z,2.56
2017-06-01T01:40:56.771Z,2.58
2017-06-01T01:43:25.696Z,2.60
2017-06-01T01:45:54.716Z,2.98
2017-06-01T01:48:23.652Z,3.04
2017-06-01T01:50:52.618Z,2.96
2017-06-01T01:53:21.544Z,2.64
2017-06-01T01:55:50.514Z,2.86
2017-06-01T01:58:19.449Z,3.22
2017-06-01T02:00:48.390Z,3.52
2017-06-01T02:03:17.369Z,3.70
2017-06-01T02:05:46.305Z,3.10
2017-06-01T02:08:15.231Z,3.10
2017-06-01T02:10:44.214Z,3.90
2017-06-01T02:13:13.149Z,2.52
2017-06-01T02:15:42.129Z,2.78
2017-06-01T02:18:11.096Z,3.22
2017-06-01T02:20:40.024Z,3.20
2017-06-01T02:23:08.952Z,2.92
2017-06-01T02:25:37.947Z,3.68
2017-06-01T02:28:07.151Z,2.96
2017-06-01T02:30:36.121Z,3.06
2017-06-01T02:33:05.053Z,3.90
2017-06-01T02:35:34.040Z,3.52
2017-06-01T02:38:02.985Z,3.20
2017-06-01T02:40:31.980Z,3.26
2017-06-01T02:43:01.016Z,3.80
2017-06-01T02:45:30.017Z,3.58
2017-06-01T02:47:58.996Z,2.86
2017-06-01T02:50:27.932Z,3.46
2017-06-01T02:52:56.868Z,2.98
2017-06-01T02:55:25.845Z,3.72
2017-06-01T02:57:54.773Z,3.56
2017-06-01T03:00:23.761Z,4.54
2017-06-01T03:02:52.684Z,2.18
2017-06-01T03:05:21.705Z,2.98
2017-06-01T03:07:50.680Z,3.98
2017-06-01T03:10:19.692Z,4.46
2017-06-01T03:12:48.676Z,3.44
2017-06-01T03:15:17.613Z,4.10
2017-06-01T03:17:46.669Z,3.62
2017-06-01T03:20:15.601Z,2.84
2017-06-01T03:22:44.630Z,2.80
2017-06-01T03:25:13.615Z,3.56
2017-06-01T03:27:42.553Z,3.90
2017-06-01T03:30:11.489Z,4.30
2017-06-01T03:32:40.837Z,3.22
2017-06-01T03:35:09.770Z,3.18
2017-06-01T03:37:38.695Z,3.34
2017-06-01T03:40:07.670Z,3.78
2017-06-01T03:42:36.601Z,3.94
2017-06-01T03:45:05.529Z,3.50
2017-06-01T03:47:34.505Z,3.28
2017-06-01T03:50:03.441Z,3.54
2017-06-01T03:52:32.441Z,3.62
2017-06-01T03:55:01.413Z,3.38
2017-06-01T03:57:30.336Z,2.48
2017-06-01T03:59:59.264Z,3.68
2017-06-01T04:02:28.231Z,2.88
2017-06-01T04:04:57.152Z,1.86
2017-06-01T04:07:26.076Z,2.42
2017-06-01T04:09:55.082Z,2.56
2017-06-01T04:12:24.010Z,2.46
2017-06-01T04:14:52.980Z,2.30
2017-06-01T04:17:21.963Z,2.20
2017-06-01T04:19:50.893Z,2.28
2017-06-01T04:22:19.865Z,3.18
2017-06-01T04:24:48.944Z,2.04
2017-06-01T04:27:17.869Z,2.30
2017-06-01T04:29:46.792Z,2.84
2017-06-01T04:32:15.815Z,2.52
2017-06-01T04:34:44.749Z,3.74
2017-06-01T04:37:13.795Z,3.38
2017-06-01T04:39:42.756Z,2.76
2017-06-01T04:42:11.741Z,3.06
2017-06-01T04:44:40.664Z,2.20
2017-06-01T04:47:09.594Z,3.22
2017-06-01T04:49:38.567Z,2.92
2017-06-01T04:52:07.580Z,3.92
2017-06-01T04:54:36.508Z,3.50
2017-06-01T04:57:05.483Z,3.88
2017-06-01T04:59:34.449Z,2.82
2017-06-01T05:02:03.367Z,2.92
2017-06-01T05:04:32.342Z,3.78
2017-06-01T05:07:01.273Z,2.60
2017-06-01T05:09:30.249Z,2.90
2017-06-01T05:11:59.172Z,2.78
2017-06-01T05:14:28.234Z,4.14
2017-06-01T05:16:57.174Z,2.76
2017-06-01T05:19:26.152Z,2.74
2017-06-01T05:21:55.068Z,3.24
2017-06-01T05:24:24.085Z,4.04
2017-06-01T05:26:53.067Z,3.28
2017-06-01T05:29:21.996Z,4.56
2017-06-01T05:31:50.924Z,3.12
2017-06-01T05:34:20.012Z,2.72
2017-06-01T05:36:49.055Z,2.98
2017-06-01T05:39:18.020Z,2.70
2017-06-01T05:41:46.997Z,2.74
2017-06-01T05:44:15.928Z,3.76
2017-06-01T05:46:44.926Z,3.48
2017-06-01T05:49:13.889Z,4.24
2017-06-01T05:51:42.825Z,3.36
2017-06-01T05:54:11.788Z,2.84
2017-06-01T05:56:40.748Z,2.80
2017-06-01T05:59:09.720Z,3.30
2017-06-01T06:01:38.649Z,1.88
2017-06-01T06:04:07.576Z,3.32
2017-06-01T06:06:36.545Z,2.88
2017-06-01T06:09:05.474Z,3.66
2017-06-01T06:11:33.675Z,3.26
2017-06-01T06:14:02.609Z,3.36
2017-06-01T06:16:31.602Z,3.56
2017-06-01T06:19:00.524Z,2.98
2017-06-01T06:21:29.507Z,3.50
2017-06-01T06:23:58.480Z,3.84
2017-06-01T06:26:27.404Z,3.66
2017-06-01T06:28:56.324Z,2.80
2017-06-01T06:31:25.296Z,2.68
2017-06-01T06:33:54.252Z,4.08
2017-06-01T06:36:23.189Z,3.26
2017-06-01T06:38:52.165Z,3.14
2017-06-01T06:41:21.236Z,4.42
2017-06-01T06:43:50.228Z,3.42
2017-06-01T06:46:19.156Z,2.90
2017-06-01T06:48:48.211Z,2.30
2017-06-01T06:51:17.194Z,2.58
2017-06-01T06:53:46.158Z,2.68
2017-06-01T06:56:15.098Z,3.84
2017-06-01T06:58:44.072Z,3.18
2017-06-01T07:01:13.076Z,2.92
2017-06-01T07:03:42.074Z,3.26
2017-06-01T07:06:10.994Z,2.72
2017-06-01T07:08:39.930Z,2.72
2017-06-01T07:11:08.896Z,2.72
2017-06-01T07:13:37.815Z,2.04
2017-06-01T07:16:06.812Z,3.98
2017-06-01T07:18:35.761Z,2.30
2017-06-01T07:21:04.684Z,2.70
2017-06-01T07:23:33.647Z,2.40
2017-06-01T07:26:03.133Z,2.86
2017-06-01T07:28:32.106Z,2.60
2017-06-01T07:31:01.037Z,3.46
2017-06-01T07:33:30.005Z,2.92
2017-06-01T07:35:58.935Z,2.74
2017-06-01T07:38:27.932Z,2.52
2017-06-01T07:40:56.857Z,2.44
2017-06-01T07:43:25.780Z,2.98
2017-06-01T07:45:54.749Z,3.42
2017-06-01T07:48:23.678Z,2.32
2017-06-01T07:50:52.656Z,3.06
2017-06-01T07:53:21.579Z,2.66
2017-06-01T07:55:50.504Z,1.98
2017-06-01T07:58:19.497Z,3.30
2017-06-01T08:00:48.481Z,1.72
2017-06-01T08:03:17.479Z,2.34
2017-06-01T08:05:46.451Z,2.08
2017-06-01T08:08:15.372Z,2.24
2017-06-01T08:10:44.300Z,2.54
2017-06-01T08:13:13.260Z,2.76
2017-06-01T08:15:42.252Z,2.18
2017-06-01T08:18:11.176Z,2.56
2017-06-01T08:20:40.128Z,2.44
2017-06-01T08:23:15.900Z,2.82
2017-06-01T08:25:44.833Z,1.60
2017-06-01T08:28:13.765Z,1.74
2017-06-01T08:30:42.827Z,1.92
2017-06-01T08:33:11.812Z,4.38
2017-06-01T08:35:40.732Z,2.68
2017-06-01T08:38:09.692Z,2.66
2017-06-01T08:40:38.621Z,1.98
2017-06-01T08:43:12.917Z,2.10
2017-06-01T08:45:41.848Z,2.30
2017-06-01T08:48:10.865Z,1.98
2017-06-01T08:50:39.898Z,2.82
2017-06-01T08:53:08.881Z,1.32
2017-06-01T08:55:37.809Z,1.60
2017-06-01T08:58:07.531Z,1.58
2017-06-01T09:00:36.461Z,1.60
2017-06-01T09:03:05.381Z,2.60
2017-06-01T09:05:34.340Z,2.20
2017-06-01T09:08:03.312Z,2.08
2017-06-01T09:10:32.236Z,1.86
2017-06-01T09:13:01.163Z,1.88
2017-06-01T09:15:30.141Z,1.44
2017-06-01T09:18:04.096Z,1.80
2017-06-01T09:20:33.029Z,1.98
2017-06-01T09:23:01.973Z,2.00
2017-06-01T09:25:30.992Z,1.42
2017-06-01T09:27:59.917Z,1.50
2017-06-01T09:30:29.049Z,1.70
2017-06-01T09:32:57.972Z,1.76
2017-06-01T09:35:26.930Z,1.36
2017-06-01T09:37:56.092Z,2.02
2017-06-01T09:40:25.064Z,1.80
2017-06-01T09:42:54.097Z,1.44
2017-06-01T09:45:23.021Z,2.64
2017-06-01T09:47:52.332Z,1.98
2017-06-01T09:50:21.289Z,2.52
2017-06-01T09:52:50.300Z,1.88
2017-06-01T09:55:19.264Z,2.00
2017-06-01T09:57:48.281Z,1.88
2017-06-01T10:00:17.222Z,1.96
2017-06-01T10:02:46.167Z,2.36
2017-06-01T10:05:15.174Z,1.36
2017-06-01T10:07:44.100Z,2.04
2017-06-01T10:10:14.597Z,1.80
2017-06-01T10:12:43.576Z,1.34
2017-06-01T10:15:12.536Z,1.34
2017-06-01T10:17:41.472Z,1.00
2017-06-01T10:20:10.481Z,1.50
2017-06-01T10:22:39.416Z,1.50
2017-06-01T10:25:08.408Z,1.70
2017-06-01T10:27:37.380Z,1.64
2017-06-01T10:30:06.309Z,1.60
2017-06-01T10:32:35.284Z,1.64
2017-06-01T10:35:04.252Z,1.20
2017-06-01T10:37:33.271Z,3.00
2017-06-01T10:40:02.354Z,1.30
2017-06-01T10:42:31.276Z,1.24
2017-06-01T10:45:00.254Z,1.22
2017-06-01T10:47:29.220Z,1.10
2017-06-01T10:49:58.153Z,1.26
2017-06-01T10:52:27.128Z,1.46
2017-06-01T10:54:56.048Z,1.70
2017-06-01T10:57:25.072Z,2.00
2017-06-01T10:59:54.073Z,1.14
2017-06-01T11:02:23.001Z,1.60
2017-06-01T11:04:51.920Z,1.22
2017-06-01T11:07:20.884Z,1.52
2017-06-01T11:09:49.938Z,1.28
2017-06-01T11:12:18.906Z,1.48
2017-06-01T11:14:47.833Z,1.30
2017-06-01T11:17:16.800Z,1.48
2017-06-01T11:19:45.774Z,1.82
2017-06-01T11:22:14.696Z,1.64
2017-06-01T11:24:43.630Z,1.10
2017-06-01T11:27:12.636Z,1.68
2017-06-01T11:29:41.561Z,1.12
2017-06-01T11:32:10.564Z,1.62
2017-06-01T11:34:39.534Z,1.46
2017-06-01T11:37:08.548Z,2.14
2017-06-01T11:39:37.472Z,0.90
2017-06-01T11:42:06.437Z,1.10
2017-06-01T11:44:35.360Z,1.10
2017-06-01T11:47:04.328Z,1.20
2017-06-01T11:49:33.308Z,1.28
2017-06-01T11:52:02.301Z,1.00
2017-06-01T11:54:31.263Z,1.28
2017-06-01T11:57:00.184Z,0.80
2017-06-01T11:59:29.144Z,2.30
2017-06-01T12:01:58.073Z,1.64
2017-06-01T12:04:27.031Z,0.90
2017-06-01T12:06:55.988Z,1.28
2017-06-01T12:09:24.922Z,1.28
2017-06-01T12:11:53.893Z,1.62
2017-06-01T12:14:22.830Z,2.04
2017-06-01T12:16:51.797Z,0.90
2017-06-01T12:19:20.770Z,1.76
2017-06-01T12:21:49.692Z,1.40
2017-06-01T12:24:18.667Z,1.20
2017-06-01T12:26:47.693Z,1.10
2017-06-01T12:29:16.660Z,1.00
2017-06-01T12:31:45.584Z,0.96
2017-06-01T12:34:14.561Z,1.10
2017-06-01T12:36:43.535Z,1.20
2017-06-01T12:39:12.448Z,1.10
2017-06-01T12:41:41.412Z,1.32
2017-06-01T12:44:10.336Z,1.62
2017-06-01T12:46:39.327Z,1.28
2017-06-01T12:49:08.320Z,1.58
2017-06-01T12:51:37.313Z,1.12
2017-06-01T12:54:06.279Z,1.12
2017-06-01T12:56:35.300Z,1.00
2017-06-01T12:59:04.219Z,1.00
2017-06-01T13:01:33.285Z,1.00
2017-06-01T13:04:02.217Z,0.96
2017-06-01T13:06:31.165Z,1.18
2017-06-01T13:09:00.146Z,1.00
2017-06-01T13:11:29.077Z,0.92
2017-06-01T13:13:58.048Z,0.86
2017-06-01T13:16:27.172Z,1.78
2017-06-01T13:18:56.105Z,1.42
2017-06-01T13:21:25.034Z,0.80
2017-06-01T13:23:54.012Z,0.74
2017-06-01T13:26:22.938Z,1.00
2017-06-01T13:28:51.872Z,0.88
2017-06-01T13:31:20.896Z,0.74
2017-06-01T13:33:49.820Z,0.80
2017-06-01T13:36:18.801Z,0.90
2017-06-01T13:38:47.736Z,1.16
2017-06-01T13:41:16.661Z,1.04
2017-06-01T13:43:45.625Z,2.12
2017-06-01T13:46:14.648Z,0.76
2017-06-01T13:48:43.609Z,0.96
2017-06-01T13:51:12.637Z,1.06
2017-06-01T13:53:41.605Z,1.22
2017-06-01T13:56:10.538Z,1.20
2017-06-01T13:58:39.468Z,0.88
2017-06-01T14:01:08.440Z,0.70
2017-06-01T14:03:37.369Z,0.94
2017-06-01T14:06:06.340Z,0.76
2017-06-01T14:08:35.733Z,0.78
2017-06-01T14:11:04.661Z,0.80
2017-06-01T14:13:33.632Z,0.70
2017-06-01T14:16:02.552Z,1.46
2017-06-01T14:18:31.512Z,0.90
2017-06-01T14:21:00.432Z,1.14
2017-06-01T14:23:29.445Z,0.98
2017-06-01T14:25:58.449Z,0.90
2017-06-01T14:28:27.378Z,1.04
2017-06-01T14:30:56.302Z,0.90
2017-06-01T14:33:25.285Z,1.38
2017-06-01T14:35:54.313Z,0.64
2017-06-01T14:38:23.239Z,1.12
2017-06-01T14:40:52.213Z,0.98
2017-06-01T14:43:21.714Z,1.16
2017-06-01T14:45:50.640Z,0.80
2017-06-01T14:48:19.564Z,0.80
2017-06-01T14:50:48.573Z,0.82
2017-06-01T14:53:17.497Z,0.90
2017-06-01T14:55:46.456Z,0.92
2017-06-01T14:58:15.449Z,1.04
2017-06-01T15:00:44.430Z,1.10
2017-06-01T15:03:13.366Z,0.96
2017-06-01T15:05:42.392Z,0.80
2017-06-01T15:08:11.447Z,0.80
2017-06-01T15:10:40.377Z,1.18
2017-06-01T15:13:09.336Z,2.08
2017-06-01T15:15:38.309Z,0.80
2017-06-01T15:18:07.232Z,0.74
2017-06-01T15:20:36.258Z,0.86
2017-06-01T15:23:05.252Z,1.00
2017-06-01T15:25:34.181Z,0.92
2017-06-01T15:28:03.114Z,1.88
2017-06-01T15:30:32.128Z,0.76
2017-06-01T15:33:01.060Z,0.76
2017-06-01T15:35:30.012Z,1.08
2017-06-01T15:37:59.004Z,1.20
2017-06-01T15:40:28.001Z,0.80
2017-06-01T15:42:56.940Z,1.00
2017-06-01T15:45:25.905Z,0.72
2017-06-01T15:47:54.828Z,0.60
2017-06-01T15:50:23.805Z,1.62
2017-06-01T15:52:52.733Z,0.78
2017-06-01T15:55:21.716Z,1.64
2017-06-01T15:57:50.640Z,0.74
2017-06-01T16:00:19.564Z,0.66
2017-06-01T16:02:48.528Z,1.08
2017-06-01T16:05:17.452Z,0.98
2017-06-01T16:07:46.437Z,0.70
2017-06-01T16:10:15.396Z,1.14
2017-06-01T16:12:44.321Z,0.60
2017-06-01T16:15:13.301Z,0.90
2017-06-01T16:17:42.224Z,1.32
2017-06-01T16:20:11.172Z,0.94
2017-06-01T16:22:40.173Z,1.54
2017-06-01T16:25:09.141Z,0.80
2017-06-01T16:27:38.100Z,0.70
2017-06-01T16:30:07.103Z,0.88
2017-06-01T16:32:36.088Z,0.70
2017-06-01T16:35:05.089Z,0.66
2017-06-01T16:37:34.012Z,0.70
2017-06-01T16:40:03.013Z,0.90
2017-06-01T16:42:32.060Z,0.94
2017-06-01T16:45:01.052Z,0.76
2017-06-01T16:47:30.016Z,0.70
2017-06-01T16:49:59.028Z,0.80
2017-06-01T16:52:27.985Z,1.00
2017-06-01T16:54:57.024Z,0.70
2017-06-01T16:57:26.020Z,1.20
2017-06-01T16:59:54.944Z,1.06
2017-06-01T17:02:23.871Z,1.00
2017-06-01T17:04:52.897Z,0.80
2017-06-01T17:07:21.820Z,1.16
2017-06-01T17:09:50.781Z,1.14
2017-06-01T17:12:19.743Z,1.00
2017-06-01T17:14:48.768Z,1.18
2017-06-01T17:17:17.701Z,1.44
2017-06-01T17:19:46.676Z,0.94
2017-06-01T17:22:15.653Z,1.24
2017-06-01T17:24:44.664Z,0.80
2017-06-01T17:27:13.588Z,0.92
2017-06-01T17:29:42.554Z,1.26
2017-06-01T17:32:11.572Z,0.96
2017-06-01T17:34:40.549Z,1.02
2017-06-01T17:37:09.472Z,0.80
2017-06-01T17:39:38.453Z,0.82
2017-06-01T17:42:07.457Z,1.30
2017-06-01T17:44:36.457Z,1.18
2017-06-01T17:47:05.433Z,0.74
2017-06-01T17:49:34.368Z,0.94
2017-06-01T17:52:03.392Z,1.86
2017-06-01T17:54:32.364Z,1.32
2017-06-01T17:57:01.386Z,0.92
2017-06-01T17:59:30.368Z,0.90
2017-06-01T18:01:59.360Z,0.96
2017-06-01T18:04:28.360Z,0.84
2017-06-01T18:06:57.320Z,0.78
2017-06-01T18:09:26.261Z,0.78
2017-06-01T18:11:55.335Z,0.64
2017-06-01T18:14:24.269Z,2.72
2017-06-01T18:16:53.197Z,0.76
2017-06-01T18:19:22.188Z,0.80
2017-06-01T18:21:51.181Z,1.20
2017-06-01T18:24:20.105Z,0.98
2017-06-01T18:26:49.068Z,0.66
2017-06-01T18:29:17.988Z,0.80
2017-06-01T18:31:46.947Z,0.90
2017-06-01T18:34:15.897Z,0.70
2017-06-01T18:36:44.829Z,1.18
2017-06-01T18:39:13.809Z,0.90
2017-06-01T18:41:42.776Z,1.02
2017-06-01T18:44:11.705Z,0.98
2017-06-01T18:46:40.688Z,1.22
2017-06-01T18:49:09.656Z,0.90
2017-06-01T18:51:38.835Z,1.24
2017-06-01T18:54:07.809Z,0.80
2017-06-01T18:56:36.834Z,1.32
2017-06-01T18:59:05.757Z,0.88
2017-06-01T19:01:34.717Z,0.82
2017-06-01T19:04:03.716Z,1.10
2017-06-01T19:06:32.676Z,1.42
2017-06-01T19:09:01.695Z,0.76
2017-06-01T19:11:30.692Z,0.96
2017-06-01T19:13:59.666Z,1.86
2017-06-01T19:16:28.638Z,1.12
2017-06-01T19:18:57.668Z,1.10
2017-06-01T19:21:26.777Z,0.90
2017-06-01T19:23:55.717Z,1.80
2017-06-01T19:26:24.654Z,0.86
2017-06-01T19:28:53.633Z,1.38
2017-06-01T19:31:22.637Z,1.54
2017-06-01T19:33:51.624Z,1.64
2017-06-01T19:36:20.600Z,1.76
2017-06-01T19:38:49.617Z,1.34
2017-06-01T19:41:18.540Z,1.62
2017-06-01T19:43:47.464Z,1.66
2017-06-01T19:46:16.433Z,1.14
2017-06-01T19:48:45.417Z,1.90
2017-06-01T19:51:14.384Z,1.36
2017-06-01T19:53:43.348Z,1.40
2017-06-01T19:56:12.354Z,2.58
2017-06-01T19:58:41.329Z,1.28
2017-06-01T20:01:10.335Z,1.48
2017-06-01T20:03:39.255Z,1.34
2017-06-01T20:06:08.216Z,1.58
2017-06-01T20:08:37.213Z,1.88
2017-06-01T20:11:06.272Z,1.36
2017-06-01T20:13:35.200Z,2.02
2017-06-01T20:16:04.126Z,1.80
2017-06-01T20:18:33.141Z,2.26
2017-06-01T20:21:02.132Z,1.78
2017-06-01T20:23:31.056Z,1.72
2017-06-01T20:26:00.121Z,1.38
2017-06-01T20:28:29.304Z,1.42
2017-06-01T20:30:58.225Z,1.98
2017-06-01T20:33:27.200Z,1.92
2017-06-01T20:35:56.124Z,1.84
2017-06-01T20:38:25.039Z,2.02
2017-06-01T20:40:54.097Z,1.94
2017-06-01T20:43:23.025Z,2.04
2017-06-01T20:45:51.948Z,1.92
2017-06-01T20:48:20.921Z,1.56
2017-06-01T20:50:52.985Z,1.82
2017-06-01T20:53:21.991Z,2.70
2017-06-01T20:55:50.963Z,1.70
2017-06-01T20:58:19.962Z,1.86
2017-06-01T21:00:49.708Z,2.38
2017-06-01T21:03:18.636Z,1.98
2017-06-01T21:05:47.655Z,2.26
2017-06-01T21:08:16.654Z,2.06
2017-06-01T21:10:45.580Z,1.44
2017-06-01T21:13:14.549Z,1.60
2017-06-01T21:15:43.522Z,1.82
2017-06-01T21:18:12.444Z,2.48
2017-06-01T21:20:41.432Z,1.30
2017-06-01T21:23:10.352Z,1.98
2017-06-01T21:25:39.352Z,1.62
2017-06-01T21:28:08.317Z,1.50
2017-06-01T21:30:37.292Z,2.42
2017-06-01T21:33:06.213Z,1.66
2017-06-01T21:35:35.140Z,2.84
2017-06-01T21:38:04.161Z,2.30
2017-06-01T21:40:33.085Z,2.08
2017-06-01T21:43:02.097Z,2.38
2017-06-01T21:45:31.046Z,1.96
2017-06-01T21:47:59.982Z,2.36
2017-06-01T21:50:28.973Z,1.92
2017-06-01T21:52:57.896Z,2.20
2017-06-01T21:55:26.912Z,2.68
2017-06-01T21:57:55.835Z,2.52
2017-06-01T22:00:24.830Z,3.68
2017-06-01T22:02:53.816Z,4.48
2017-06-01T22:05:22.802Z,3.52
2017-06-01T22:07:51.741Z,6.96
2017-06-01T22:10:20.668Z,8.60
2017-06-01T22:12:49.745Z,6.08
2017-06-01T22:15:18.676Z,5.48
2017-06-01T22:17:47.657Z,5.00
2017-06-01T22:20:16.589Z,4.00
2017-06-01T22:22:45.524Z,4.56
2017-06-01T22:25:14.488Z,3.52
2017-06-01T22:27:43.412Z,2.72
2017-06-01T22:30:12.379Z,3.14
2017-06-01T22:32:41.388Z,2.58
2017-06-01T22:35:10.314Z,3.06
2017-06-01T22:37:39.244Z,3.30
2017-06-01T22:40:08.217Z,2.94
2017-06-01T22:42:37.152Z,3.66
2017-06-01T22:45:06.149Z,3.08
2017-06-01T22:47:35.077Z,2.30
2017-06-01T22:50:04.049Z,3.00
2017-06-01T22:52:33.038Z,2.50
2017-06-01T22:55:01.970Z,2.20
2017-06-01T22:57:30.961Z,2.58
2017-06-01T23:00:00.052Z,3.70
2017-06-01T23:02:28.980Z,2.92
2017-06-01T23:04:57.940Z,2.68
2017-06-01T23:07:26.932Z,2.00
2017-06-01T23:09:55.852Z,3.12
2017-06-01T23:12:24.789Z,2.36
2017-06-01T23:14:54.144Z,3.10
2017-06-01T23:17:23.076Z,3.06
2017-06-01T23:19:52.004Z,2.70
2017-06-01T23:22:20.972Z,2.66
2017-06-01T23:24:49.896Z,2.50
2017-06-01T23:27:18.871Z,2.38
2017-06-01T23:29:47.861Z,2.66
2017-06-01T23:32:16.784Z,3.20
2017-06-01T23:34:45.709Z,1.88
2017-06-01T23:37:14.716Z,2.22
2017-06-01T23:39:43.640Z,2.40
2017-06-01T23:42:12.585Z,2.52
2017-06-01T23:44:41.567Z,2.70
2017-06-01T23:47:10.581Z,2.92
2017-06-01T23:49:39.504Z,2.44
2017-06-01T23:52:08.433Z,2.76
2017-06-01T23:54:37.404Z,2.42
2017-06-01T23:57:06.341Z,3.28
2017-06-01T23:59:35.324Z,2.74
